sensor_id;sensor_type;location;lat;lon;timestamp;temperature;humidity
43043;DHT22;28667;50.758;6.096;2022-12-29T00:02:15;9.90;99.90
43043;DHT22;28667;50.758;6.096;2022-12-29T00:04:41;9.90;99.90
43043;DHT22;28667;50.758;6.096;2022-12-29T00:07:07;10.00;99.90
43043;DHT22;28667;50.758;6.096;2022-12-29T00:09:34;10.00;99.90
43043;DHT22;28667;50.758;6.096;2022-12-29T00:12:01;10.10;99.90
43043;DHT22;28667;50.758;6.096;2022-12-29T00:14:27;10.10;99.90
43043;DHT22;28667;50.758;6.096;2022-12-29T00:17:12;10.10;99.90
43043;DHT22;28667;50.758;6.096;2022-12-29T00:19:38;10.20;99.90
43043;DHT22;28667;50.758;6.096;2022-12-29T00:22:23;10.20;99.90
43043;DHT22;28667;50.758;6.096;2022-12-29T00:25:09;10.20;99.90
43043;DHT22;28667;50.758;6.096;2022-12-29T00:27:53;10.30;99.90
43043;DHT22;28667;50.758;6.096;2022-12-29T00:30:38;10.20;99.90
43043;DHT22;28667;50.758;6.096;2022-12-29T00:33:28;10.20;99.90
43043;DHT22;28667;50.758;6.096;2022-12-29T00:36:19;10.20;99.90
43043;DHT22;28667;50.758;6.096;2022-12-29T00:38:53;10.10;99.90
43043;DHT22;28667;50.758;6.096;2022-12-29T00:41:39;10.10;99.90
43043;DHT22;28667;50.758;6.096;2022-12-29T00:44:23;10.00;99.90
43043;DHT22;28667;50.758;6.096;2022-12-29T00:46:48;9.90;99.90
43043;DHT22;28667;50.758;6.096;2022-12-29T00:49:14;9.90;99.90
43043;DHT22;28667;50.758;6.096;2022-12-29T00:54:22;9.90;99.90
43043;DHT22;28667;50.758;6.096;2022-12-29T00:56:49;10.00;99.90
43043;DHT22;28667;50.758;6.096;2022-12-29T00:59:16;9.90;99.90
43043;DHT22;28667;50.758;6.096;2022-12-29T01:01:42;9.90;99.90
43043;DHT22;28667;50.758;6.096;2022-12-29T01:04:10;10.00;99.90
43043;DHT22;28667;50.758;6.096;2022-12-29T01:06:38;10.00;99.90
43043;DHT22;28667;50.758;6.096;2022-12-29T01:09:04;10.00;99.90
43043;DHT22;28667;50.758;6.096;2022-12-29T01:11:49;10.00;99.90
43043;DHT22;28667;50.758;6.096;2022-12-29T01:14:15;10.00;99.90
43043;DHT22;28667;50.758;6.096;2022-12-29T01:16:40;10.10;99.90
43043;DHT22;28667;50.758;6.096;2022-12-29T01:19:06;10.00;99.90
43043;DHT22;28667;50.758;6.096;2022-12-29T01:21:32;10.00;99.90
43043;DHT22;28667;50.758;6.096;2022-12-29T01:23:58;10.00;99.90
43043;DHT22;28667;50.758;6.096;2022-12-29T01:26:24;10.00;99.90
43043;DHT22;28667;50.758;6.096;2022-12-29T01:28:51;10.00;99.90
43043;DHT22;28667;50.758;6.096;2022-12-29T01:31:16;10.00;99.90
43043;DHT22;28667;50.758;6.096;2022-12-29T01:33:43;10.00;99.90
43043;DHT22;28667;50.758;6.096;2022-12-29T01:36:11;10.00;99.90
43043;DHT22;28667;50.758;6.096;2022-12-29T01:38:38;10.00;99.90
43043;DHT22;28667;50.758;6.096;2022-12-29T01:41:04;10.00;99.90
43043;DHT22;28667;50.758;6.096;2022-12-29T01:43:50;10.00;99.90
43043;DHT22;28667;50.758;6.096;2022-12-29T01:48:47;10.00;99.90
43043;DHT22;28667;50.758;6.096;2022-12-29T01:51:15;10.10;99.90
43043;DHT22;28667;50.758;6.096;2022-12-29T01:53:42;10.10;99.90
43043;DHT22;28667;50.758;6.096;2022-12-29T01:56:09;10.20;99.90
43043;DHT22;28667;50.758;6.096;2022-12-29T01:58:40;10.20;99.90
43043;DHT22;28667;50.758;6.096;2022-12-29T02:01:07;10.30;99.90
43043;DHT22;28667;50.758;6.096;2022-12-29T02:03:35;10.30;99.90
43043;DHT22;28667;50.758;6.096;2022-12-29T02:06:28;10.30;99.90
43043;DHT22;28667;50.758;6.096;2022-12-29T02:08:55;10.30;99.90
43043;DHT22;28667;50.758;6.096;2022-12-29T02:11:23;10.40;99.90
43043;DHT22;28667;50.758;6.096;2022-12-29T02:13:51;10.40;99.90
43043;DHT22;28667;50.758;6.096;2022-12-29T02:19:40;10.40;99.90
43043;DHT22;28667;50.758;6.096;2022-12-29T02:22:30;10.40;99.90
43043;DHT22;28667;50.758;6.096;2022-12-29T02:30:49;10.40;99.90
43043;DHT22;28667;50.758;6.096;2022-12-29T02:33:38;10.40;99.90
43043;DHT22;28667;50.758;6.096;2022-12-29T02:44:36;10.50;99.90
43043;DHT22;28667;50.758;6.096;2022-12-29T02:47:16;10.50;99.90
43043;DHT22;28667;50.758;6.096;2022-12-29T02:49:51;10.50;99.90
43043;DHT22;28667;50.758;6.096;2022-12-29T02:52:26;10.40;99.90
43043;DHT22;28667;50.758;6.096;2022-12-29T02:54:54;10.50;99.90
43043;DHT22;28667;50.758;6.096;2022-12-29T02:59:51;10.40;99.90
43043;DHT22;28667;50.758;6.096;2022-12-29T03:08:06;10.50;99.90
43043;DHT22;28667;50.758;6.096;2022-12-29T03:13:26;10.50;99.90
43043;DHT22;28667;50.758;6.096;2022-12-29T03:19:04;10.60;99.90
43043;DHT22;28667;50.758;6.096;2022-12-29T03:21:55;10.60;99.90
43043;DHT22;28667;50.758;6.096;2022-12-29T03:24:48;10.60;99.90
43043;DHT22;28667;50.758;6.096;2022-12-29T03:27:21;10.60;99.90
43043;DHT22;28667;50.758;6.096;2022-12-29T03:29:52;10.60;99.90
43043;DHT22;28667;50.758;6.096;2022-12-29T03:32:21;10.60;99.90
43043;DHT22;28667;50.758;6.096;2022-12-29T03:34:49;10.70;99.90
43043;DHT22;28667;50.758;6.096;2022-12-29T03:37:18;10.70;99.90
43043;DHT22;28667;50.758;6.096;2022-12-29T03:39:46;10.70;99.90
43043;DHT22;28667;50.758;6.096;2022-12-29T03:42:15;10.70;99.90
43043;DHT22;28667;50.758;6.096;2022-12-29T03:44:43;10.70;99.90
43043;DHT22;28667;50.758;6.096;2022-12-29T03:47:12;10.70;99.90
43043;DHT22;28667;50.758;6.096;2022-12-29T03:49:38;10.70;99.90
43043;DHT22;28667;50.758;6.096;2022-12-29T03:52:04;10.70;99.90
43043;DHT22;28667;50.758;6.096;2022-12-29T03:54:34;10.70;99.90
43043;DHT22;28667;50.758;6.096;2022-12-29T03:56:59;10.60;99.90
43043;DHT22;28667;50.758;6.096;2022-12-29T03:59:49;10.70;99.90
43043;DHT22;28667;50.758;6.096;2022-12-29T04:02:15;10.70;99.90
43043;DHT22;28667;50.758;6.096;2022-12-29T04:04:41;10.70;99.90
43043;DHT22;28667;50.758;6.096;2022-12-29T04:07:07;10.60;99.90
43043;DHT22;28667;50.758;6.096;2022-12-29T04:09:32;10.70;99.90
43043;DHT22;28667;50.758;6.096;2022-12-29T04:11:59;10.70;99.90
43043;DHT22;28667;50.758;6.096;2022-12-29T04:14:25;10.70;99.90
43043;DHT22;28667;50.758;6.096;2022-12-29T04:16:52;10.80;99.90
43043;DHT22;28667;50.758;6.096;2022-12-29T04:19:18;10.80;99.90
43043;DHT22;28667;50.758;6.096;2022-12-29T04:21:44;10.80;99.90
43043;DHT22;28667;50.758;6.096;2022-12-29T04:24:09;10.80;99.90
43043;DHT22;28667;50.758;6.096;2022-12-29T04:26:39;10.80;99.90
43043;DHT22;28667;50.758;6.096;2022-12-29T04:29:35;10.80;99.90
43043;DHT22;28667;50.758;6.096;2022-12-29T04:32:16;10.80;99.90
43043;DHT22;28667;50.758;6.096;2022-12-29T04:34:47;10.90;99.90
43043;DHT22;28667;50.758;6.096;2022-12-29T04:37:12;10.90;99.90
43043;DHT22;28667;50.758;6.096;2022-12-29T04:39:38;10.80;99.90
43043;DHT22;28667;50.758;6.096;2022-12-29T04:42:07;10.80;99.90
43043;DHT22;28667;50.758;6.096;2022-12-29T04:44:33;10.80;99.90
43043;DHT22;28667;50.758;6.096;2022-12-29T04:47:30;10.80;99.90
43043;DHT22;28667;50.758;6.096;2022-12-29T04:50:05;10.70;99.90
43043;DHT22;28667;50.758;6.096;2022-12-29T04:52:43;10.70;99.90
43043;DHT22;28667;50.758;6.096;2022-12-29T04:55:10;10.60;99.90
43043;DHT22;28667;50.758;6.096;2022-12-29T04:57:36;10.60;99.90
43043;DHT22;28667;50.758;6.096;2022-12-29T05:00:03;10.60;99.90
43043;DHT22;28667;50.758;6.096;2022-12-29T05:02:29;10.70;99.90
43043;DHT22;28667;50.758;6.096;2022-12-29T05:04:56;10.60;99.90
43043;DHT22;28667;50.758;6.096;2022-12-29T05:07:22;10.60;99.90
43043;DHT22;28667;50.758;6.096;2022-12-29T05:09:48;10.60;99.90
43043;DHT22;28667;50.758;6.096;2022-12-29T05:12:14;10.60;99.90
43043;DHT22;28667;50.758;6.096;2022-12-29T05:14:53;10.60;99.90
43043;DHT22;28667;50.758;6.096;2022-12-29T05:17:19;10.60;99.90
43043;DHT22;28667;50.758;6.096;2022-12-29T05:19:45;10.50;99.90
43043;DHT22;28667;50.758;6.096;2022-12-29T05:22:11;10.50;99.90
43043;DHT22;28667;50.758;6.096;2022-12-29T05:24:38;10.50;99.90
43043;DHT22;28667;50.758;6.096;2022-12-29T05:27:04;10.50;99.90
43043;DHT22;28667;50.758;6.096;2022-12-29T05:29:56;10.50;99.90
43043;DHT22;28667;50.758;6.096;2022-12-29T05:32:22;10.50;99.90
43043;DHT22;28667;50.758;6.096;2022-12-29T05:34:48;10.50;99.90
43043;DHT22;28667;50.758;6.096;2022-12-29T05:37:13;10.50;99.90
43043;DHT22;28667;50.758;6.096;2022-12-29T05:39:41;10.50;99.90
43043;DHT22;28667;50.758;6.096;2022-12-29T05:42:07;10.50;99.90
43043;DHT22;28667;50.758;6.096;2022-12-29T05:44:53;10.40;99.90
43043;DHT22;28667;50.758;6.096;2022-12-29T05:47:30;10.50;99.90
43043;DHT22;28667;50.758;6.096;2022-12-29T05:50:07;10.40;99.90
43043;DHT22;28667;50.758;6.096;2022-12-29T05:53:08;10.40;99.90
43043;DHT22;28667;50.758;6.096;2022-12-29T05:55:36;10.40;99.90
43043;DHT22;28667;50.758;6.096;2022-12-29T05:58:02;10.40;99.90
43043;DHT22;28667;50.758;6.096;2022-12-29T06:00:28;10.30;99.90
43043;DHT22;28667;50.758;6.096;2022-12-29T06:02:53;10.20;99.90
43043;DHT22;28667;50.758;6.096;2022-12-29T06:05:20;10.20;99.90
43043;DHT22;28667;50.758;6.096;2022-12-29T06:07:45;10.20;99.90
43043;DHT22;28667;50.758;6.096;2022-12-29T06:10:14;10.20;99.90
43043;DHT22;28667;50.758;6.096;2022-12-29T06:12:54;10.20;99.90
43043;DHT22;28667;50.758;6.096;2022-12-29T06:15:19;10.20;99.90
43043;DHT22;28667;50.758;6.096;2022-12-29T06:17:47;10.20;99.90
43043;DHT22;28667;50.758;6.096;2022-12-29T06:20:13;10.30;99.90
43043;DHT22;28667;50.758;6.096;2022-12-29T06:22:39;10.20;99.90
43043;DHT22;28667;50.758;6.096;2022-12-29T06:25:05;10.20;99.90
43043;DHT22;28667;50.758;6.096;2022-12-29T06:27:32;10.20;99.90
43043;DHT22;28667;50.758;6.096;2022-12-29T06:29:59;10.20;99.90
43043;DHT22;28667;50.758;6.096;2022-12-29T06:32:25;10.20;99.90
43043;DHT22;28667;50.758;6.096;2022-12-29T06:34:54;10.20;99.90
43043;DHT22;28667;50.758;6.096;2022-12-29T06:37:20;10.20;99.90
43043;DHT22;28667;50.758;6.096;2022-12-29T06:39:46;10.20;99.90
43043;DHT22;28667;50.758;6.096;2022-12-29T06:42:13;10.20;99.90
43043;DHT22;28667;50.758;6.096;2022-12-29T06:44:48;10.10;99.90
43043;DHT22;28667;50.758;6.096;2022-12-29T06:47:13;10.10;99.90
43043;DHT22;28667;50.758;6.096;2022-12-29T06:49:39;10.10;99.90
43043;DHT22;28667;50.758;6.096;2022-12-29T06:52:05;10.10;99.90
43043;DHT22;28667;50.758;6.096;2022-12-29T06:54:31;10.10;99.90
43043;DHT22;28667;50.758;6.096;2022-12-29T06:56:57;10.20;99.90
43043;DHT22;28667;50.758;6.096;2022-12-29T06:59:23;10.10;99.90
43043;DHT22;28667;50.758;6.096;2022-12-29T07:01:50;10.10;99.90
43043;DHT22;28667;50.758;6.096;2022-12-29T07:04:16;10.10;99.90
43043;DHT22;28667;50.758;6.096;2022-12-29T07:06:41;10.00;99.90
43043;DHT22;28667;50.758;6.096;2022-12-29T07:09:08;10.00;99.90
43043;DHT22;28667;50.758;6.096;2022-12-29T07:11:34;10.00;99.90
43043;DHT22;28667;50.758;6.096;2022-12-29T07:14:00;10.00;99.90
43043;DHT22;28667;50.758;6.096;2022-12-29T07:16:26;10.00;99.90
43043;DHT22;28667;50.758;6.096;2022-12-29T07:18:55;10.00;99.90
43043;DHT22;28667;50.758;6.096;2022-12-29T07:21:20;10.00;99.90
43043;DHT22;28667;50.758;6.096;2022-12-29T07:23:46;10.00;99.90
43043;DHT22;28667;50.758;6.096;2022-12-29T07:26:13;10.00;99.90
43043;DHT22;28667;50.758;6.096;2022-12-29T07:28:40;10.00;99.90
43043;DHT22;28667;50.758;6.096;2022-12-29T07:31:17;10.00;99.90
43043;DHT22;28667;50.758;6.096;2022-12-29T07:33:44;10.00;99.90
43043;DHT22;28667;50.758;6.096;2022-12-29T07:36:11;10.00;99.90
43043;DHT22;28667;50.758;6.096;2022-12-29T07:38:37;10.00;99.90
43043;DHT22;28667;50.758;6.096;2022-12-29T07:41:03;10.00;99.90
43043;DHT22;28667;50.758;6.096;2022-12-29T07:43:29;10.00;99.90
43043;DHT22;28667;50.758;6.096;2022-12-29T07:46:17;9.90;99.90
43043;DHT22;28667;50.758;6.096;2022-12-29T07:48:43;9.90;99.90
43043;DHT22;28667;50.758;6.096;2022-12-29T07:51:08;9.90;99.90
43043;DHT22;28667;50.758;6.096;2022-12-29T07:53:35;9.80;99.90
43043;DHT22;28667;50.758;6.096;2022-12-29T07:56:00;9.80;99.90
43043;DHT22;28667;50.758;6.096;2022-12-29T07:58:26;9.80;99.90
43043;DHT22;28667;50.758;6.096;2022-12-29T08:00:55;9.80;99.90
43043;DHT22;28667;50.758;6.096;2022-12-29T08:03:21;9.70;99.90
43043;DHT22;28667;50.758;6.096;2022-12-29T08:05:48;9.70;99.90
43043;DHT22;28667;50.758;6.096;2022-12-29T08:08:13;9.60;99.90
43043;DHT22;28667;50.758;6.096;2022-12-29T08:10:39;9.60;99.90
43043;DHT22;28667;50.758;6.096;2022-12-29T08:13:05;9.60;99.90
43043;DHT22;28667;50.758;6.096;2022-12-29T08:15:30;9.60;99.90
43043;DHT22;28667;50.758;6.096;2022-12-29T08:17:56;9.70;99.90
43043;DHT22;28667;50.758;6.096;2022-12-29T08:20:22;9.70;99.90
43043;DHT22;28667;50.758;6.096;2022-12-29T08:22:47;9.70;99.90
43043;DHT22;28667;50.758;6.096;2022-12-29T08:25:13;9.80;99.90
43043;DHT22;28667;50.758;6.096;2022-12-29T08:27:39;9.80;99.90
43043;DHT22;28667;50.758;6.096;2022-12-29T08:30:05;9.80;99.90
43043;DHT22;28667;50.758;6.096;2022-12-29T08:32:31;9.80;99.90
43043;DHT22;28667;50.758;6.096;2022-12-29T08:34:57;9.80;99.90
43043;DHT22;28667;50.758;6.096;2022-12-29T08:37:23;9.70;99.90
43043;DHT22;28667;50.758;6.096;2022-12-29T08:39:48;9.70;99.90
43043;DHT22;28667;50.758;6.096;2022-12-29T08:42:15;9.70;99.90
43043;DHT22;28667;50.758;6.096;2022-12-29T08:44:41;9.70;99.90
43043;DHT22;28667;50.758;6.096;2022-12-29T08:47:08;9.70;99.90
43043;DHT22;28667;50.758;6.096;2022-12-29T08:49:34;9.70;99.90
43043;DHT22;28667;50.758;6.096;2022-12-29T08:52:00;9.70;99.90
43043;DHT22;28667;50.758;6.096;2022-12-29T08:54:26;9.60;99.90
43043;DHT22;28667;50.758;6.096;2022-12-29T08:56:51;9.60;99.90
43043;DHT22;28667;50.758;6.096;2022-12-29T08:59:19;9.60;99.90
43043;DHT22;28667;50.758;6.096;2022-12-29T09:01:47;9.60;99.90
43043;DHT22;28667;50.758;6.096;2022-12-29T09:04:12;9.70;99.90
43043;DHT22;28667;50.758;6.096;2022-12-29T09:06:38;9.70;99.90
43043;DHT22;28667;50.758;6.096;2022-12-29T09:09:04;9.70;99.90
43043;DHT22;28667;50.758;6.096;2022-12-29T09:11:29;9.80;99.90
43043;DHT22;28667;50.758;6.096;2022-12-29T09:13:55;9.80;99.90
43043;DHT22;28667;50.758;6.096;2022-12-29T09:16:23;9.80;99.90
43043;DHT22;28667;50.758;6.096;2022-12-29T09:18:49;9.80;99.90
43043;DHT22;28667;50.758;6.096;2022-12-29T09:21:15;9.70;99.90
43043;DHT22;28667;50.758;6.096;2022-12-29T09:23:40;9.80;99.90
43043;DHT22;28667;50.758;6.096;2022-12-29T09:26:07;9.70;99.90
43043;DHT22;28667;50.758;6.096;2022-12-29T09:28:34;9.80;99.90
43043;DHT22;28667;50.758;6.096;2022-12-29T09:31:00;9.80;99.90
43043;DHT22;28667;50.758;6.096;2022-12-29T09:33:26;9.80;99.90
43043;DHT22;28667;50.758;6.096;2022-12-29T09:35:54;9.80;99.90
43043;DHT22;28667;50.758;6.096;2022-12-29T09:38:20;9.80;99.90
43043;DHT22;28667;50.758;6.096;2022-12-29T09:40:51;9.90;99.90
43043;DHT22;28667;50.758;6.096;2022-12-29T09:43:51;9.80;99.90
43043;DHT22;28667;50.758;6.096;2022-12-29T09:46:28;9.90;99.90
43043;DHT22;28667;50.758;6.096;2022-12-29T09:51:30;9.90;99.90
43043;DHT22;28667;50.758;6.096;2022-12-29T09:54:00;10.00;99.90
43043;DHT22;28667;50.758;6.096;2022-12-29T09:56:28;10.00;99.90
43043;DHT22;28667;50.758;6.096;2022-12-29T09:59:04;10.00;99.90
43043;DHT22;28667;50.758;6.096;2022-12-29T10:04:43;10.10;99.90
43043;DHT22;28667;50.758;6.096;2022-12-29T10:18:38;10.20;99.90
43043;DHT22;28667;50.758;6.096;2022-12-29T10:21:27;10.20;99.90
43043;DHT22;28667;50.758;6.096;2022-12-29T10:23:56;10.20;99.90
43043;DHT22;28667;50.758;6.096;2022-12-29T10:26:26;10.20;99.90
43043;DHT22;28667;50.758;6.096;2022-12-29T10:29:04;10.20;99.90
43043;DHT22;28667;50.758;6.096;2022-12-29T10:31:50;10.30;99.90
43043;DHT22;28667;50.758;6.096;2022-12-29T10:34:31;10.30;99.90
43043;DHT22;28667;50.758;6.096;2022-12-29T10:39:43;10.40;99.90
43043;DHT22;28667;50.758;6.096;2022-12-29T10:42:34;10.40;99.90
43043;DHT22;28667;50.758;6.096;2022-12-29T10:45:03;10.40;99.90
43043;DHT22;28667;50.758;6.096;2022-12-29T10:47:35;10.50;99.90
43043;DHT22;28667;50.758;6.096;2022-12-29T10:50:04;10.40;99.90
43043;DHT22;28667;50.758;6.096;2022-12-29T10:52:31;10.40;99.90
43043;DHT22;28667;50.758;6.096;2022-12-29T10:55:04;10.40;99.90
43043;DHT22;28667;50.758;6.096;2022-12-29T10:57:36;10.40;99.90
43043;DHT22;28667;50.758;6.096;2022-12-29T11:00:16;10.50;99.90
43043;DHT22;28667;50.758;6.096;2022-12-29T11:05:23;10.50;99.90
43043;DHT22;28667;50.758;6.096;2022-12-29T11:07:54;10.60;99.90
43043;DHT22;28667;50.758;6.096;2022-12-29T11:13:04;10.50;99.90
43043;DHT22;28667;50.758;6.096;2022-12-29T11:15:43;10.50;99.90
43043;DHT22;28667;50.758;6.096;2022-12-29T11:18:25;10.50;99.90
43043;DHT22;28667;50.758;6.096;2022-12-29T11:20:57;10.40;99.90
43043;DHT22;28667;50.758;6.096;2022-12-29T11:28:40;10.40;99.90
43043;DHT22;28667;50.758;6.096;2022-12-29T11:31:08;10.40;99.90
43043;DHT22;28667;50.758;6.096;2022-12-29T11:33:36;10.40;99.90
43043;DHT22;28667;50.758;6.096;2022-12-29T11:36:20;10.40;99.90
43043;DHT22;28667;50.758;6.096;2022-12-29T11:38:49;10.40;99.90
43043;DHT22;28667;50.758;6.096;2022-12-29T11:41:27;10.30;99.90
43043;DHT22;28667;50.758;6.096;2022-12-29T11:43:58;10.30;99.90
43043;DHT22;28667;50.758;6.096;2022-12-29T11:46:30;10.20;99.90
43043;DHT22;28667;50.758;6.096;2022-12-29T11:48:58;10.20;99.90
43043;DHT22;28667;50.758;6.096;2022-12-29T11:51:46;10.20;99.90
43043;DHT22;28667;50.758;6.096;2022-12-29T11:54:25;10.30;99.90
43043;DHT22;28667;50.758;6.096;2022-12-29T11:56:53;10.30;99.90
43043;DHT22;28667;50.758;6.096;2022-12-29T12:04:42;10.10;99.90
43043;DHT22;28667;50.758;6.096;2022-12-29T12:07:18;10.10;99.90
43043;DHT22;28667;50.758;6.096;2022-12-29T12:09:58;10.00;99.90
43043;DHT22;28667;50.758;6.096;2022-12-29T12:12:35;10.00;99.90
43043;DHT22;28667;50.758;6.096;2022-12-29T12:15:04;9.90;99.90
43043;DHT22;28667;50.758;6.096;2022-12-29T12:23:19;10.00;99.90
43043;DHT22;28667;50.758;6.096;2022-12-29T12:26:01;10.10;99.90
43043;DHT22;28667;50.758;6.096;2022-12-29T12:28:39;10.10;99.90
43043;DHT22;28667;50.758;6.096;2022-12-29T12:31:16;10.20;99.90
43043;DHT22;28667;50.758;6.096;2022-12-29T12:33:46;10.10;99.90
43043;DHT22;28667;50.758;6.096;2022-12-29T12:36:25;10.20;99.90
43043;DHT22;28667;50.758;6.096;2022-12-29T12:44:15;10.20;99.90
43043;DHT22;28667;50.758;6.096;2022-12-29T12:47:15;10.20;99.90
43043;DHT22;28667;50.758;6.096;2022-12-29T13:00:21;10.00;99.90
43043;DHT22;28667;50.758;6.096;2022-12-29T13:03:14;10.00;99.90
43043;DHT22;28667;50.758;6.096;2022-12-29T13:06:04;10.00;99.90
43043;DHT22;28667;50.758;6.096;2022-12-29T13:19:34;10.10;99.90
43043;DHT22;28667;50.758;6.096;2022-12-29T13:35:59;9.80;99.90
43043;DHT22;28667;50.758;6.096;2022-12-29T13:38:31;9.80;99.90
43043;DHT22;28667;50.758;6.096;2022-12-29T13:44:05;9.80;99.90
43043;DHT22;28667;50.758;6.096;2022-12-29T13:46:39;9.80;99.90
43043;DHT22;28667;50.758;6.096;2022-12-29T13:49:11;9.80;99.90
43043;DHT22;28667;50.758;6.096;2022-12-29T13:51:45;9.80;99.90
43043;DHT22;28667;50.758;6.096;2022-12-29T14:02:01;9.80;99.90
43043;DHT22;28667;50.758;6.096;2022-12-29T14:04:30;9.80;99.90
43043;DHT22;28667;50.758;6.096;2022-12-29T14:07:13;9.80;99.90
43043;DHT22;28667;50.758;6.096;2022-12-29T14:09:51;9.80;99.90
43043;DHT22;28667;50.758;6.096;2022-12-29T14:12:38;9.80;99.90
43043;DHT22;28667;50.758;6.096;2022-12-29T14:15:19;9.70;99.90
43043;DHT22;28667;50.758;6.096;2022-12-29T14:20:28;9.70;99.90
43043;DHT22;28667;50.758;6.096;2022-12-29T14:28:31;9.60;99.90
43043;DHT22;28667;50.758;6.096;2022-12-29T14:31:02;9.60;99.90
43043;DHT22;28667;50.758;6.096;2022-12-29T14:33:33;9.60;99.90
43043;DHT22;28667;50.758;6.096;2022-12-29T14:36:18;9.60;99.90
43043;DHT22;28667;50.758;6.096;2022-12-29T14:38:46;9.60;99.90
43043;DHT22;28667;50.758;6.096;2022-12-29T14:41:26;9.50;99.90
43043;DHT22;28667;50.758;6.096;2022-12-29T14:44:27;9.50;99.90
43043;DHT22;28667;50.758;6.096;2022-12-29T14:49:22;9.50;99.90
43043;DHT22;28667;50.758;6.096;2022-12-29T14:51:55;9.50;99.90
43043;DHT22;28667;50.758;6.096;2022-12-29T14:57:06;9.40;99.90
43043;DHT22;28667;50.758;6.096;2022-12-29T14:59:34;9.30;99.90
43043;DHT22;28667;50.758;6.096;2022-12-29T15:02:04;9.30;99.90
43043;DHT22;28667;50.758;6.096;2022-12-29T15:04:38;9.30;99.90
43043;DHT22;28667;50.758;6.096;2022-12-29T15:07:09;9.20;99.90
43043;DHT22;28667;50.758;6.096;2022-12-29T15:09:52;9.20;99.90
43043;DHT22;28667;50.758;6.096;2022-12-29T15:12:52;9.20;99.90
43043;DHT22;28667;50.758;6.096;2022-12-29T15:15:25;9.10;99.90
43043;DHT22;28667;50.758;6.096;2022-12-29T15:17:51;9.00;99.90
43043;DHT22;28667;50.758;6.096;2022-12-29T15:20:26;9.00;99.90
43043;DHT22;28667;50.758;6.096;2022-12-29T15:23:08;8.90;99.90
43043;DHT22;28667;50.758;6.096;2022-12-29T15:25:35;8.90;99.90
43043;DHT22;28667;50.758;6.096;2022-12-29T15:28:04;8.80;99.90
43043;DHT22;28667;50.758;6.096;2022-12-29T15:30:31;8.70;99.90
43043;DHT22;28667;50.758;6.096;2022-12-29T15:32:57;8.70;99.90
43043;DHT22;28667;50.758;6.096;2022-12-29T15:37:54;8.50;99.90
43043;DHT22;28667;50.758;6.096;2022-12-29T15:40:26;8.50;99.90
43043;DHT22;28667;50.758;6.096;2022-12-29T15:45:34;8.40;99.90
43043;DHT22;28667;50.758;6.096;2022-12-29T15:48:01;8.40;99.90
43043;DHT22;28667;50.758;6.096;2022-12-29T15:50:32;8.40;99.90
43043;DHT22;28667;50.758;6.096;2022-12-29T15:52:59;8.40;99.90
43043;DHT22;28667;50.758;6.096;2022-12-29T15:55:32;8.40;99.90
43043;DHT22;28667;50.758;6.096;2022-12-29T15:58:01;8.40;99.90
43043;DHT22;28667;50.758;6.096;2022-12-29T16:00:32;8.40;99.90
43043;DHT22;28667;50.758;6.096;2022-12-29T16:03:00;8.40;99.90
43043;DHT22;28667;50.758;6.096;2022-12-29T16:05:38;8.40;99.90
43043;DHT22;28667;50.758;6.096;2022-12-29T16:08:30;8.40;99.90
43043;DHT22;28667;50.758;6.096;2022-12-29T16:10:59;8.40;99.90
43043;DHT22;28667;50.758;6.096;2022-12-29T16:13:49;8.40;99.90
43043;DHT22;28667;50.758;6.096;2022-12-29T16:16:30;8.40;99.90
43043;DHT22;28667;50.758;6.096;2022-12-29T16:18:57;8.30;99.90
43043;DHT22;28667;50.758;6.096;2022-12-29T16:21:26;8.20;99.90
43043;DHT22;28667;50.758;6.096;2022-12-29T16:23:55;8.20;99.90
43043;DHT22;28667;50.758;6.096;2022-12-29T16:26:23;8.10;99.90
43043;DHT22;28667;50.758;6.096;2022-12-29T16:29:01;8.10;99.90
43043;DHT22;28667;50.758;6.096;2022-12-29T16:31:54;8.00;99.90
43043;DHT22;28667;50.758;6.096;2022-12-29T16:34:28;7.90;99.90
43043;DHT22;28667;50.758;6.096;2022-12-29T16:37:00;7.90;99.90
43043;DHT22;28667;50.758;6.096;2022-12-29T16:41:54;7.80;99.90
43043;DHT22;28667;50.758;6.096;2022-12-29T16:49:35;7.80;99.90
43043;DHT22;28667;50.758;6.096;2022-12-29T16:52:12;7.80;99.90
43043;DHT22;28667;50.758;6.096;2022-12-29T16:54:39;7.70;99.90
43043;DHT22;28667;50.758;6.096;2022-12-29T16:57:07;7.70;99.90
43043;DHT22;28667;50.758;6.096;2022-12-29T16:59:37;7.70;99.90
43043;DHT22;28667;50.758;6.096;2022-12-29T17:02:15;7.60;99.90
43043;DHT22;28667;50.758;6.096;2022-12-29T17:04:41;7.60;99.90
43043;DHT22;28667;50.758;6.096;2022-12-29T17:07:19;7.60;99.90
43043;DHT22;28667;50.758;6.096;2022-12-29T17:09:45;7.50;99.90
43043;DHT22;28667;50.758;6.096;2022-12-29T17:12:18;7.50;99.90
43043;DHT22;28667;50.758;6.096;2022-12-29T17:14:47;7.50;99.90
43043;DHT22;28667;50.758;6.096;2022-12-29T17:19:53;7.50;99.90
43043;DHT22;28667;50.758;6.096;2022-12-29T17:22:23;7.50;99.90
43043;DHT22;28667;50.758;6.096;2022-12-29T17:24:53;7.70;99.90
43043;DHT22;28667;50.758;6.096;2022-12-29T17:29:50;7.70;99.90
43043;DHT22;28667;50.758;6.096;2022-12-29T17:32:17;7.70;99.90
43043;DHT22;28667;50.758;6.096;2022-12-29T17:34:42;7.80;99.90
43043;DHT22;28667;50.758;6.096;2022-12-29T17:39:45;7.90;99.90
43043;DHT22;28667;50.758;6.096;2022-12-29T17:42:12;7.90;99.90
43043;DHT22;28667;50.758;6.096;2022-12-29T17:44:37;7.90;99.90
43043;DHT22;28667;50.758;6.096;2022-12-29T17:47:03;8.00;99.90
43043;DHT22;28667;50.758;6.096;2022-12-29T17:49:29;7.90;99.90
43043;DHT22;28667;50.758;6.096;2022-12-29T17:51:54;7.90;99.90
43043;DHT22;28667;50.758;6.096;2022-12-29T17:54:23;7.80;99.90
43043;DHT22;28667;50.758;6.096;2022-12-29T17:56:50;7.80;99.90
43043;DHT22;28667;50.758;6.096;2022-12-29T17:59:16;7.60;99.90
43043;DHT22;28667;50.758;6.096;2022-12-29T18:01:43;7.50;99.90
43043;DHT22;28667;50.758;6.096;2022-12-29T18:04:13;7.40;99.90
43043;DHT22;28667;50.758;6.096;2022-12-29T18:06:40;7.30;99.90
43043;DHT22;28667;50.758;6.096;2022-12-29T18:09:06;7.30;99.90
43043;DHT22;28667;50.758;6.096;2022-12-29T18:11:34;7.20;99.90
43043;DHT22;28667;50.758;6.096;2022-12-29T18:14:00;7.20;99.90
43043;DHT22;28667;50.758;6.096;2022-12-29T18:16:26;7.20;99.90
43043;DHT22;28667;50.758;6.096;2022-12-29T18:18:52;7.10;99.90
43043;DHT22;28667;50.758;6.096;2022-12-29T18:21:20;7.10;99.90
43043;DHT22;28667;50.758;6.096;2022-12-29T18:23:46;7.10;99.90
43043;DHT22;28667;50.758;6.096;2022-12-29T18:26:17;7.00;99.90
43043;DHT22;28667;50.758;6.096;2022-12-29T18:28:43;7.00;99.90
43043;DHT22;28667;50.758;6.096;2022-12-29T18:31:21;6.90;99.90
43043;DHT22;28667;50.758;6.096;2022-12-29T18:33:48;6.80;99.90
43043;DHT22;28667;50.758;6.096;2022-12-29T18:36:15;6.70;99.90
43043;DHT22;28667;50.758;6.096;2022-12-29T18:38:41;6.70;99.90
43043;DHT22;28667;50.758;6.096;2022-12-29T18:41:22;6.70;99.90
43043;DHT22;28667;50.758;6.096;2022-12-29T18:43:48;6.60;99.90
43043;DHT22;28667;50.758;6.096;2022-12-29T18:46:14;6.50;99.90